createdAt,value
2023-10-05T00:03:23.582Z,4.90
2023-10-05T00:07:27.885Z,4.50
2023-10-05T00:11:31.356Z,4.93
2023-10-05T00:15:37.563Z,4.30
2023-10-05T00:19:41.913Z,4.25
2023-10-05T00:23:45.068Z,4.30
2023-10-05T00:32:00.044Z,4.03
2023-10-05T00:36:06.321Z,4.75
2023-10-05T00:40:13.057Z,4.22
2023-10-05T00:44:15.924Z,4.03
2023-10-05T00:48:30.688Z,4.25
2023-10-05T00:52:35.727Z,3.83
2023-10-05T00:56:42.701Z,4.40
2023-10-05T01:00:52.772Z,3.90
2023-10-05T01:04:58.345Z,4.28
2023-10-05T01:09:08.449Z,4.20
2023-10-05T01:13:29.983Z,3.90
2023-10-05T01:17:33.448Z,3.60
2023-10-05T01:21:37.170Z,3.67
2023-10-05T01:25:41.347Z,4.00
2023-10-05T01:29:44.204Z,3.65
2023-10-05T01:33:47.971Z,3.78
2023-10-05T01:37:54.093Z,3.35
2023-10-05T01:42:00.884Z,3.97
2023-10-05T01:46:06.111Z,4.00
2023-10-05T01:50:16.671Z,4.05
2023-10-05T01:54:19.571Z,4.00
2023-10-05T01:58:35.273Z,3.33
2023-10-05T02:02:38.743Z,4.13
2023-10-05T02:06:42.259Z,4.15
2023-10-05T02:10:48.028Z,3.70
2023-10-05T02:14:55.555Z,3.45
2023-10-05T02:18:59.253Z,3.83
2023-10-05T02:23:04.093Z,3.50
2023-10-05T02:27:13.814Z,3.90
2023-10-05T02:31:21.365Z,3.58
2023-10-05T02:35:31.120Z,3.83
2023-10-05T02:39:37.634Z,3.60
2023-10-05T02:43:43.146Z,3.30
2023-10-05T02:47:49.797Z,3.58
2023-10-05T02:51:54.026Z,3.88
2023-10-05T02:55:56.908Z,3.38
2023-10-05T03:00:00.405Z,3.67
2023-10-05T03:04:10.585Z,3.40
2023-10-05T03:08:13.536Z,3.47
2023-10-05T03:12:21.434Z,3.53
2023-10-05T03:16:32.945Z,3.20
2023-10-05T03:20:37.662Z,3.45
2023-10-05T03:24:42.848Z,3.50
2023-10-05T03:28:46.367Z,3.13
2023-10-05T03:32:51.297Z,3.17
2023-10-05T03:36:56.763Z,3.60
2023-10-05T03:41:04.549Z,3.28
2023-10-05T03:45:11.475Z,3.40
2023-10-05T03:49:16.410Z,3.60
2023-10-05T03:53:21.197Z,3.35
2023-10-05T03:57:24.193Z,3.30
2023-10-05T04:01:27.252Z,3.00
2023-10-05T04:05:31.848Z,3.33
2023-10-05T04:09:37.283Z,3.40
2023-10-05T04:13:40.209Z,3.03
2023-10-05T04:17:44.698Z,3.08
2023-10-05T04:21:47.933Z,3.60
2023-10-05T04:25:53.549Z,2.83
2023-10-05T04:29:56.506Z,3.45
2023-10-05T04:34:01.934Z,3.40
2023-10-05T04:38:05.825Z,3.28
2023-10-05T04:42:13.092Z,3.22
2023-10-05T04:46:19.154Z,3.08
2023-10-05T04:50:22.289Z,2.83
2023-10-05T04:54:27.060Z,3.45
2023-10-05T04:58:44.329Z,3.13
2023-10-05T05:03:06.294Z,3.05
2023-10-05T05:07:10.455Z,3.30
2023-10-05T05:11:20.254Z,3.38
2023-10-05T05:15:24.671Z,3.10
2023-10-05T05:19:28.145Z,2.88
2023-10-05T05:23:31.100Z,3.50
2023-10-05T05:27:34.777Z,2.83
2023-10-05T05:31:39.651Z,3.22
2023-10-05T05:35:44.112Z,3.70
2023-10-05T05:39:47.022Z,3.72
2023-10-05T05:43:50.545Z,3.28
2023-10-05T05:47:55.929Z,3.13
2023-10-05T05:51:59.806Z,3.08
2023-10-05T05:56:04.547Z,3.85
2023-10-05T06:00:13.537Z,3.70
2023-10-05T06:04:17.821Z,3.92
2023-10-05T06:08:20.741Z,3.60
2023-10-05T06:12:23.853Z,2.92
2023-10-05T06:16:27.110Z,2.88
2023-10-05T06:20:33.258Z,3.10
2023-10-05T06:24:41.808Z,3.50
2023-10-05T06:28:45.712Z,3.60
2023-10-05T06:32:49.453Z,3.22
2023-10-05T06:36:54.173Z,3.28
2023-10-05T06:40:57.241Z,4.00
2023-10-05T06:45:00.061Z,3.60
2023-10-05T06:49:06.867Z,3.33
2023-10-05T06:53:12.318Z,3.45
2023-10-05T06:57:15.382Z,3.30
2023-10-05T07:01:21.756Z,3.80
2023-10-05T07:05:24.973Z,3.55
2023-10-05T07:09:29.124Z,3.40
2023-10-05T07:13:32.049Z,3.67
2023-10-05T07:17:35.238Z,3.45
2023-10-05T07:21:38.195Z,3.33
2023-10-05T07:25:42.699Z,3.67
2023-10-05T07:29:46.818Z,3.20
2023-10-05T07:33:49.844Z,3.58
2023-10-05T07:37:52.719Z,3.58
2023-10-05T07:41:56.996Z,4.15
2023-10-05T07:46:01.888Z,3.60
2023-10-05T07:50:06.285Z,3.75
2023-10-05T07:54:10.346Z,3.60
2023-10-05T07:58:17.435Z,3.47
2023-10-05T08:02:21.124Z,3.20
2023-10-05T08:06:24.379Z,2.95
2023-10-05T08:10:27.330Z,3.25
2023-10-05T08:14:32.287Z,3.40
2023-10-05T08:18:35.164Z,3.70
2023-10-05T08:22:38.337Z,3.28
2023-10-05T08:26:42.462Z,3.75
2023-10-05T08:30:58.962Z,3.65
2023-10-05T08:35:08.203Z,3.25
2023-10-05T08:39:11.164Z,3.28
2023-10-05T08:43:17.721Z,3.78
2023-10-05T08:47:24.246Z,3.80
2023-10-05T08:51:29.884Z,3.33
2023-10-05T08:55:36.126Z,3.42
2023-10-05T08:59:43.860Z,3.33
2023-10-05T09:03:54.934Z,3.88
2023-10-05T09:07:58.042Z,3.15
2023-10-05T09:12:17.759Z,3.30
2023-10-05T09:16:31.449Z,3.28
2023-10-05T09:20:39.454Z,3.58
2023-10-05T09:24:54.494Z,3.35
2023-10-05T09:29:13.818Z,3.70
2023-10-05T09:33:19.744Z,4.05
2023-10-05T09:37:26.706Z,3.70
2023-10-05T09:41:31.860Z,4.05
2023-10-05T09:45:36.018Z,3.58
2023-10-05T09:49:40.742Z,4.00
2023-10-05T09:53:48.252Z,3.55
2023-10-05T09:57:55.053Z,4.20
2023-10-05T10:01:58.967Z,4.30
2023-10-05T10:06:11.114Z,3.72
2023-10-05T10:10:20.001Z,3.80
2023-10-05T10:14:27.564Z,3.80
2023-10-05T10:18:38.352Z,4.03
2023-10-05T10:22:51.550Z,3.72
2023-10-05T10:27:14.638Z,4.00
2023-10-05T10:31:19.926Z,3.88
2023-10-05T10:35:28.764Z,3.67
2023-10-05T10:39:32.856Z,3.85
2023-10-05T10:43:37.835Z,3.85
2023-10-05T10:47:47.742Z,3.70
2023-10-05T10:51:51.265Z,4.15
2023-10-05T10:56:05.050Z,3.45
2023-10-05T11:00:29.821Z,3.25
2023-10-05T11:04:50.141Z,3.55
2023-10-05T11:09:00.691Z,3.70
2023-10-05T11:13:15.903Z,3.35
2023-10-05T11:17:32.865Z,3.38
2023-10-05T11:21:44.611Z,3.08
2023-10-05T11:25:54.855Z,3.00
2023-10-05T11:30:29.569Z,2.60
2023-10-05T11:34:48.082Z,3.05
2023-10-05T11:39:04.966Z,2.55
2023-10-05T11:43:14.201Z,2.97
2023-10-05T11:47:25.461Z,3.15
2023-10-05T11:51:42.315Z,3.38
2023-10-05T11:55:50.026Z,3.33
2023-10-05T12:00:01.106Z,2.85
2023-10-05T12:04:05.867Z,3.05
2023-10-05T12:08:13.608Z,3.22
2023-10-05T12:12:19.527Z,3.50
2023-10-05T12:16:22.563Z,3.20
2023-10-05T12:20:25.960Z,3.38
2023-10-05T12:24:31.441Z,4.00
2023-10-05T12:28:34.547Z,3.20
2023-10-05T12:32:37.672Z,3.53
2023-10-05T12:36:41.208Z,3.67
2023-10-05T12:40:48.827Z,3.13
2023-10-05T12:44:52.441Z,3.20
2023-10-05T12:48:57.691Z,3.63
2023-10-05T12:53:02.898Z,3.60
2023-10-05T13:01:18.918Z,3.00
2023-10-05T13:05:29.777Z,3.10
2023-10-05T13:09:36.042Z,3.78
2023-10-05T13:13:41.088Z,3.47
2023-10-05T13:17:47.233Z,3.60
2023-10-05T13:21:51.860Z,4.20
2023-10-05T13:25:56.909Z,3.83
2023-10-05T13:30:01.179Z,3.80
2023-10-05T13:34:04.329Z,3.50
2023-10-05T13:38:09.166Z,3.67
2023-10-05T13:42:22.089Z,3.38
2023-10-05T13:46:36.679Z,3.83
2023-10-05T13:50:41.813Z,3.35
2023-10-05T13:54:44.735Z,4.35
2023-10-05T13:58:49.841Z,3.80
2023-10-05T14:02:55.592Z,3.65
2023-10-05T14:07:03.562Z,4.20
2023-10-05T14:11:10.811Z,4.28
2023-10-05T14:15:20.636Z,4.05
2023-10-05T14:19:27.285Z,4.47
2023-10-05T14:23:30.325Z,4.63
2023-10-05T14:27:47.570Z,4.43
2023-10-05T14:31:53.731Z,4.35
2023-10-05T14:35:58.779Z,4.15
2023-10-05T14:40:01.870Z,4.35
2023-10-05T14:44:07.370Z,4.10
2023-10-05T14:48:10.265Z,4.15
2023-10-05T14:52:14.605Z,3.75
2023-10-05T14:56:17.673Z,3.83
2023-10-05T15:00:20.662Z,3.80
2023-10-05T15:04:23.735Z,4.00
2023-10-05T15:08:27.978Z,3.65
2023-10-05T15:12:30.866Z,3.35
2023-10-05T15:16:33.848Z,3.40
2023-10-05T15:20:38.826Z,3.67
2023-10-05T15:24:43.618Z,3.47
2023-10-05T15:28:46.681Z,3.10
2023-10-05T15:32:51.330Z,3.60
2023-10-05T15:36:56.170Z,3.70
2023-10-05T15:41:00.418Z,3.58
2023-10-05T15:45:10.605Z,3.53
2023-10-05T15:49:13.936Z,3.78
2023-10-05T15:53:17.347Z,4.40
2023-10-05T15:57:21.564Z,3.70
2023-10-05T16:01:27.800Z,3.33
2023-10-05T16:05:34.108Z,3.55
2023-10-05T16:09:36.936Z,3.47
2023-10-05T16:13:41.139Z,3.70
2023-10-05T16:17:46.256Z,3.58
2023-10-05T16:21:49.298Z,4.40
2023-10-05T16:25:52.770Z,4.10
2023-10-05T16:29:57.406Z,3.78
2023-10-05T16:34:00.390Z,4.07
2023-10-05T16:38:03.510Z,4.90
2023-10-05T16:42:07.460Z,4.20
2023-10-05T16:46:16.091Z,4.07
2023-10-05T16:50:21.238Z,4.40
2023-10-05T16:54:24.687Z,4.50
2023-10-05T16:58:27.763Z,4.00
2023-10-05T17:02:32.083Z,4.00
2023-10-05T17:06:35.329Z,3.72
2023-10-05T17:10:38.620Z,4.10
2023-10-05T17:14:41.567Z,4.53
2023-10-05T17:18:46.206Z,4.65
2023-10-05T17:22:50.541Z,6.30
2023-10-05T17:26:53.388Z,4.32
2023-10-05T17:30:56.996Z,4.18
2023-10-05T17:35:02.874Z,4.45
2023-10-05T17:39:07.049Z,4.47
2023-10-05T17:43:10.354Z,4.22
2023-10-05T17:47:13.600Z,4.00
2023-10-05T17:51:17.775Z,3.97
2023-10-05T17:55:20.788Z,4.10
2023-10-05T17:59:26.451Z,3.97
2023-10-05T18:03:30.031Z,4.35
2023-10-05T18:07:34.378Z,4.30
2023-10-05T18:11:38.147Z,4.30
2023-10-05T18:15:41.250Z,4.20
2023-10-05T18:19:44.184Z,4.53
2023-10-05T18:23:49.990Z,4.10
2023-10-05T18:27:52.990Z,3.83
2023-10-05T18:31:55.928Z,4.07
2023-10-05T18:36:00.966Z,4.13
2023-10-05T18:40:06.246Z,4.00
2023-10-05T18:44:10.212Z,3.80
2023-10-05T18:48:13.329Z,3.47
2023-10-05T18:52:16.208Z,3.50
2023-10-05T18:56:20.634Z,3.63
2023-10-05T19:00:25.761Z,3.35
2023-10-05T19:04:30.641Z,3.55
2023-10-05T19:08:33.534Z,3.03
2023-10-05T19:12:37.806Z,3.17
2023-10-05T19:16:41.623Z,3.42
2023-10-05T19:20:44.753Z,3.25
2023-10-05T19:24:47.856Z,3.60
2023-10-05T19:28:52.140Z,3.15
2023-10-05T19:32:55.140Z,3.00
2023-10-05T19:36:58.016Z,3.58
2023-10-05T19:41:00.935Z,3.13
2023-10-05T19:45:05.824Z,2.92
2023-10-05T19:49:08.690Z,3.25
2023-10-05T19:53:11.664Z,2.70
2023-10-05T19:57:14.999Z,2.85
2023-10-05T20:01:19.209Z,2.67
2023-10-05T20:05:24.571Z,3.08
2023-10-05T20:09:28.417Z,3.10
2023-10-05T20:13:31.421Z,3.90
2023-10-05T20:17:35.837Z,2.63
2023-10-05T20:21:41.388Z,2.72
2023-10-05T20:25:44.499Z,3.05
2023-10-05T20:29:48.397Z,2.88
2023-10-05T20:33:52.641Z,2.80
2023-10-05T20:37:55.477Z,2.92
2023-10-05T20:41:58.776Z,3.30
2023-10-05T20:46:05.942Z,2.25
2023-10-05T20:50:11.342Z,3.00
2023-10-05T20:54:14.454Z,2.38
2023-10-05T20:58:18.056Z,2.35
2023-10-05T21:02:21.157Z,2.65
2023-10-05T21:06:25.958Z,2.60
2023-10-05T21:10:29.244Z,2.58
2023-10-05T21:14:33.301Z,3.03
2023-10-05T21:18:36.695Z,2.75
2023-10-05T21:22:41.035Z,2.40
2023-10-05T21:26:43.933Z,2.47
2023-10-05T21:30:47.674Z,2.78
2023-10-05T21:34:51.244Z,2.50
2023-10-05T21:38:55.749Z,2.67
2023-10-05T21:42:58.860Z,2.60
2023-10-05T21:47:02.474Z,2.90
2023-10-05T21:51:05.320Z,2.30
2023-10-05T21:55:10.828Z,2.90
2023-10-05T21:59:15.243Z,2.35
2023-10-05T22:03:18.133Z,3.08
2023-10-05T22:07:21.209Z,2.38
2023-10-05T22:11:25.566Z,2.65
2023-10-05T22:15:28.391Z,3.00
2023-10-05T22:19:31.344Z,2.97
2023-10-05T22:23:34.299Z,2.47
2023-10-05T22:27:38.476Z,2.53
2023-10-05T22:31:41.342Z,3.05
2023-10-05T22:35:44.209Z,2.80
2023-10-05T22:39:47.034Z,2.88
2023-10-05T22:43:51.241Z,2.78
2023-10-05T22:47:54.150Z,2.90
2023-10-05T22:51:56.963Z,2.80
2023-10-05T22:56:01.092Z,2.90
2023-10-05T23:00:06.665Z,3.10
2023-10-05T23:04:12.763Z,2.78
2023-10-05T23:08:15.679Z,2.67
2023-10-05T23:12:19.813Z,2.47
2023-10-05T23:16:23.994Z,3.00
2023-10-05T23:20:27.044Z,2.97
2023-10-05T23:24:31.844Z,3.05
2023-10-05T23:28:34.802Z,2.83
2023-10-05T23:32:38.926Z,2.78
2023-10-05T23:36:45.992Z,3.55
2023-10-05T23:40:48.997Z,3.30
2023-10-05T23:44:51.883Z,2.92
2023-10-05T23:48:56.217Z,3.25
2023-10-05T23:52:59.380Z,3.60
2023-10-05T23:57:11.778Z,3.45
